sensor_id;sensor_type;location;lat;lon;timestamp;P1;durP1;ratioP1;P2;durP2;ratioP2
39102;SDS011;24847;48.218;16.414;2023-08-06T00:04:50;0.10;;;0.10;;
39102;SDS011;24847;48.218;16.414;2023-08-06T00:09:53;0.13;;;0.03;;
39102;SDS011;24847;48.218;16.414;2023-08-06T00:14:56;0.00;;;0.00;;
39102;SDS011;24847;48.218;16.414;2023-08-06T00:19:59;0.10;;;0.00;;
39102;SDS011;24847;48.218;16.414;2023-08-06T00:25:05;0.10;;;0.10;;
39102;SDS011;24847;48.218;16.414;2023-08-06T00:30:10;0.00;;;0.00;;
39102;SDS011;24847;48.218;16.414;2023-08-06T00:35:12;0.10;;;0.10;;
39102;SDS011;24847;48.218;16.414;2023-08-06T00:40:14;0.10;;;0.08;;
39102;SDS011;24847;48.218;16.414;2023-08-06T00:45:18;0.10;;;0.00;;
39102;SDS011;24847;48.218;16.414;2023-08-06T00:50:20;0.10;;;0.00;;
39102;SDS011;24847;48.218;16.414;2023-08-06T00:55:23;0.10;;;0.05;;
39102;SDS011;24847;48.218;16.414;2023-08-06T01:00:26;0.10;;;0.10;;
39102;SDS011;24847;48.218;16.414;2023-08-06T01:05:29;0.10;;;0.10;;
39102;SDS011;24847;48.218;16.414;2023-08-06T01:10:34;0.10;;;0.10;;
39102;SDS011;24847;48.218;16.414;2023-08-06T01:15:55;0.10;;;0.00;;
39102;SDS011;24847;48.218;16.414;2023-08-06T01:21:00;0.10;;;0.00;;
39102;SDS011;24847;48.218;16.414;2023-08-06T01:26:05;0.08;;;0.00;;
39102;SDS011;24847;48.218;16.414;2023-08-06T01:31:18;0.00;;;0.00;;
39102;SDS011;24847;48.218;16.414;2023-08-06T01:36:25;0.10;;;0.05;;
39102;SDS011;24847;48.218;16.414;2023-08-06T01:41:29;0.05;;;0.00;;
39102;SDS011;24847;48.218;16.414;2023-08-06T01:46:32;0.10;;;0.00;;
39102;SDS011;24847;48.218;16.414;2023-08-06T01:51:35;0.40;;;0.00;;
39102;SDS011;24847;48.218;16.414;2023-08-06T01:56:38;0.20;;;0.10;;
39102;SDS011;24847;48.218;16.414;2023-08-06T02:01:40;0.00;;;0.00;;
39102;SDS011;24847;48.218;16.414;2023-08-06T02:06:44;0.50;;;0.00;;
39102;SDS011;24847;48.218;16.414;2023-08-06T02:11:46;0.22;;;0.08;;
39102;SDS011;24847;48.218;16.414;2023-08-06T02:16:48;0.10;;;0.10;;
39102;SDS011;24847;48.218;16.414;2023-08-06T02:21:52;0.10;;;0.08;;
39102;SDS011;24847;48.218;16.414;2023-08-06T02:26:54;0.25;;;0.10;;
39102;SDS011;24847;48.218;16.414;2023-08-06T02:31:56;0.30;;;0.10;;
39102;SDS011;24847;48.218;16.414;2023-08-06T02:37:02;0.47;;;0.10;;
39102;SDS011;24847;48.218;16.414;2023-08-06T02:42:06;0.50;;;0.17;;
39102;SDS011;24847;48.218;16.414;2023-08-06T02:47:08;0.10;;;0.10;;
39102;SDS011;24847;48.218;16.414;2023-08-06T02:52:12;0.25;;;0.20;;
39102;SDS011;24847;48.218;16.414;2023-08-06T02:57:15;0.22;;;0.20;;
39102;SDS011;24847;48.218;16.414;2023-08-06T03:02:17;0.20;;;0.20;;
39102;SDS011;24847;48.218;16.414;2023-08-06T03:07:21;0.30;;;0.20;;
39102;SDS011;24847;48.218;16.414;2023-08-06T03:12:23;0.22;;;0.10;;
39102;SDS011;24847;48.218;16.414;2023-08-06T03:17:25;0.35;;;0.30;;
39102;SDS011;24847;48.218;16.414;2023-08-06T03:22:29;0.22;;;0.22;;
39102;SDS011;24847;48.218;16.414;2023-08-06T03:27:31;0.20;;;0.20;;
39102;SDS011;24847;48.218;16.414;2023-08-06T03:32:33;0.28;;;0.20;;
39102;SDS011;24847;48.218;16.414;2023-08-06T03:37:37;0.38;;;0.38;;
39102;SDS011;24847;48.218;16.414;2023-08-06T03:42:39;0.50;;;0.40;;
39102;SDS011;24847;48.218;16.414;2023-08-06T03:47:41;0.85;;;0.47;;
39102;SDS011;24847;48.218;16.414;2023-08-06T03:52:45;0.50;;;0.43;;
39102;SDS011;24847;48.218;16.414;2023-08-06T03:57:47;0.38;;;0.38;;
39102;SDS011;24847;48.218;16.414;2023-08-06T04:02:49;0.50;;;0.50;;
39102;SDS011;24847;48.218;16.414;2023-08-06T04:07:53;0.73;;;0.73;;
39102;SDS011;24847;48.218;16.414;2023-08-06T04:12:55;0.50;;;0.50;;
39102;SDS011;24847;48.218;16.414;2023-08-06T04:17:57;0.68;;;0.65;;
39102;SDS011;24847;48.218;16.414;2023-08-06T04:23:04;0.68;;;0.65;;
39102;SDS011;24847;48.218;16.414;2023-08-06T04:28:08;1.17;;;0.68;;
39102;SDS011;24847;48.218;16.414;2023-08-06T04:33:11;0.60;;;0.60;;
39102;SDS011;24847;48.218;16.414;2023-08-06T04:38:15;0.68;;;0.60;;
39102;SDS011;24847;48.218;16.414;2023-08-06T04:43:17;0.70;;;0.60;;
39102;SDS011;24847;48.218;16.414;2023-08-06T04:48:20;0.68;;;0.50;;
39102;SDS011;24847;48.218;16.414;2023-08-06T04:53:23;0.75;;;0.63;;
39102;SDS011;24847;48.218;16.414;2023-08-06T04:58:25;0.60;;;0.60;;
39102;SDS011;24847;48.218;16.414;2023-08-06T05:03:28;0.70;;;0.60;;
39102;SDS011;24847;48.218;16.414;2023-08-06T05:08:32;1.48;;;0.68;;
39102;SDS011;24847;48.218;16.414;2023-08-06T05:13:34;0.60;;;0.45;;
39102;SDS011;24847;48.218;16.414;2023-08-06T05:18:36;0.63;;;0.60;;
39102;SDS011;24847;48.218;16.414;2023-08-06T05:23:40;1.77;;;1.00;;
39102;SDS011;24847;48.218;16.414;2023-08-06T05:28:43;0.77;;;0.65;;
39102;SDS011;24847;48.218;16.414;2023-08-06T05:33:45;0.85;;;0.60;;
39102;SDS011;24847;48.218;16.414;2023-08-06T05:38:48;0.55;;;0.55;;
39102;SDS011;24847;48.218;16.414;2023-08-06T05:43:51;1.00;;;0.60;;
39102;SDS011;24847;48.218;16.414;2023-08-06T05:48:53;0.88;;;0.60;;
39102;SDS011;24847;48.218;16.414;2023-08-06T05:53:57;0.60;;;0.52;;
39102;SDS011;24847;48.218;16.414;2023-08-06T05:58:59;0.60;;;0.60;;
39102;SDS011;24847;48.218;16.414;2023-08-06T06:04:01;0.80;;;0.73;;
39102;SDS011;24847;48.218;16.414;2023-08-06T06:09:05;1.38;;;1.27;;
39102;SDS011;24847;48.218;16.414;2023-08-06T06:14:08;0.70;;;0.70;;
39102;SDS011;24847;48.218;16.414;2023-08-06T06:19:10;0.68;;;0.68;;
39102;SDS011;24847;48.218;16.414;2023-08-06T06:24:14;1.77;;;0.70;;
39102;SDS011;24847;48.218;16.414;2023-08-06T06:29:16;0.70;;;0.70;;
39102;SDS011;24847;48.218;16.414;2023-08-06T06:34:18;0.80;;;0.80;;
39102;SDS011;24847;48.218;16.414;2023-08-06T06:39:22;0.90;;;0.63;;
39102;SDS011;24847;48.218;16.414;2023-08-06T06:44:24;0.95;;;0.70;;
39102;SDS011;24847;48.218;16.414;2023-08-06T06:49:26;0.70;;;0.55;;
39102;SDS011;24847;48.218;16.414;2023-08-06T06:54:30;0.95;;;0.82;;
39102;SDS011;24847;48.218;16.414;2023-08-06T06:59:32;0.95;;;0.55;;
39102;SDS011;24847;48.218;16.414;2023-08-06T07:04:34;0.57;;;0.57;;
39102;SDS011;24847;48.218;16.414;2023-08-06T07:09:38;0.63;;;0.63;;
39102;SDS011;24847;48.218;16.414;2023-08-06T07:14:40;0.52;;;0.52;;
39102;SDS011;24847;48.218;16.414;2023-08-06T07:19:42;0.70;;;0.70;;
39102;SDS011;24847;48.218;16.414;2023-08-06T07:24:46;0.93;;;0.73;;
39102;SDS011;24847;48.218;16.414;2023-08-06T07:29:48;1.05;;;0.70;;
39102;SDS011;24847;48.218;16.414;2023-08-06T07:34:50;0.60;;;0.60;;
39102;SDS011;24847;48.218;16.414;2023-08-06T07:39:58;0.50;;;0.50;;
39102;SDS011;24847;48.218;16.414;2023-08-06T07:45:01;1.05;;;0.40;;
39102;SDS011;24847;48.218;16.414;2023-08-06T07:50:04;0.60;;;0.60;;
39102;SDS011;24847;48.218;16.414;2023-08-06T07:55:09;1.20;;;0.73;;
39102;SDS011;24847;48.218;16.414;2023-08-06T08:00:11;0.75;;;0.65;;
39102;SDS011;24847;48.218;16.414;2023-08-06T08:05:13;1.00;;;0.68;;
39102;SDS011;24847;48.218;16.414;2023-08-06T08:10:17;0.73;;;0.73;;
39102;SDS011;24847;48.218;16.414;2023-08-06T08:15:20;0.77;;;0.70;;
39102;SDS011;24847;48.218;16.414;2023-08-06T08:20:22;1.20;;;0.80;;
39102;SDS011;24847;48.218;16.414;2023-08-06T08:25:26;0.75;;;0.65;;
39102;SDS011;24847;48.218;16.414;2023-08-06T08:30:29;0.60;;;0.60;;
39102;SDS011;24847;48.218;16.414;2023-08-06T08:35:31;1.13;;;0.90;;
39102;SDS011;24847;48.218;16.414;2023-08-06T08:40:35;1.50;;;0.90;;
39102;SDS011;24847;48.218;16.414;2023-08-06T08:45:47;0.60;;;0.60;;
39102;SDS011;24847;48.218;16.414;2023-08-06T08:50:52;0.80;;;0.80;;
39102;SDS011;24847;48.218;16.414;2023-08-06T08:55:59;0.77;;;0.77;;
39102;SDS011;24847;48.218;16.414;2023-08-06T09:01:04;0.70;;;0.70;;
39102;SDS011;24847;48.218;16.414;2023-08-06T09:06:09;0.88;;;0.88;;
39102;SDS011;24847;48.218;16.414;2023-08-06T09:11:18;2.10;;;1.10;;
39102;SDS011;24847;48.218;16.414;2023-08-06T09:16:22;0.88;;;0.88;;
39102;SDS011;24847;48.218;16.414;2023-08-06T09:21:25;1.02;;;0.80;;
39102;SDS011;24847;48.218;16.414;2023-08-06T09:26:35;1.30;;;1.00;;
39102;SDS011;24847;48.218;16.414;2023-08-06T09:31:42;1.27;;;1.00;;
39102;SDS011;24847;48.218;16.414;2023-08-06T09:36:55;1.48;;;1.02;;
39102;SDS011;24847;48.218;16.414;2023-08-06T09:41:59;0.98;;;0.90;;
39102;SDS011;24847;48.218;16.414;2023-08-06T09:47:03;1.40;;;1.05;;
39102;SDS011;24847;48.218;16.414;2023-08-06T09:52:06;1.08;;;1.08;;
39102;SDS011;24847;48.218;16.414;2023-08-06T09:57:15;1.20;;;1.10;;
39102;SDS011;24847;48.218;16.414;2023-08-06T10:02:19;1.20;;;1.10;;
39102;SDS011;24847;48.218;16.414;2023-08-06T10:07:25;1.02;;;1.00;;
39102;SDS011;24847;48.218;16.414;2023-08-06T10:12:29;1.20;;;1.08;;
39102;SDS011;24847;48.218;16.414;2023-08-06T10:17:36;0.70;;;0.70;;
39102;SDS011;24847;48.218;16.414;2023-08-06T10:22:42;1.08;;;0.85;;
39102;SDS011;24847;48.218;16.414;2023-08-06T10:27:54;0.70;;;0.70;;
39102;SDS011;24847;48.218;16.414;2023-08-06T10:32:57;0.82;;;0.80;;
39102;SDS011;24847;48.218;16.414;2023-08-06T10:38:05;1.10;;;1.00;;
39102;SDS011;24847;48.218;16.414;2023-08-06T10:43:24;0.80;;;0.80;;
39102;SDS011;24847;48.218;16.414;2023-08-06T10:48:28;0.85;;;0.80;;
39102;SDS011;24847;48.218;16.414;2023-08-06T10:53:31;0.98;;;0.88;;
39102;SDS011;24847;48.218;16.414;2023-08-06T10:58:35;1.42;;;1.05;;
39102;SDS011;24847;48.218;16.414;2023-08-06T11:03:37;1.55;;;1.45;;
39102;SDS011;24847;48.218;16.414;2023-08-06T11:08:42;1.85;;;1.50;;
39102;SDS011;24847;48.218;16.414;2023-08-06T11:18:53;2.08;;;1.48;;
39102;SDS011;24847;48.218;16.414;2023-08-06T11:23:57;1.40;;;1.30;;
39102;SDS011;24847;48.218;16.414;2023-08-06T11:29:02;1.50;;;1.15;;
39102;SDS011;24847;48.218;16.414;2023-08-06T11:34:04;1.60;;;1.50;;
39102;SDS011;24847;48.218;16.414;2023-08-06T11:39:06;1.30;;;1.20;;
39102;SDS011;24847;48.218;16.414;2023-08-06T11:44:11;1.33;;;1.23;;
39102;SDS011;24847;48.218;16.414;2023-08-06T11:49:14;1.30;;;1.20;;
39102;SDS011;24847;48.218;16.414;2023-08-06T11:54:16;1.60;;;1.40;;
39102;SDS011;24847;48.218;16.414;2023-08-06T11:59:46;1.45;;;1.35;;
39102;SDS011;24847;48.218;16.414;2023-08-06T12:05:01;1.50;;;1.20;;
39102;SDS011;24847;48.218;16.414;2023-08-06T12:10:08;1.42;;;1.33;;
39102;SDS011;24847;48.218;16.414;2023-08-06T12:15:13;1.58;;;1.40;;
39102;SDS011;24847;48.218;16.414;2023-08-06T12:20:15;1.40;;;1.30;;
39102;SDS011;24847;48.218;16.414;2023-08-06T12:25:20;1.45;;;1.13;;
39102;SDS011;24847;48.218;16.414;2023-08-06T12:30:25;1.42;;;1.10;;
39102;SDS011;24847;48.218;16.414;2023-08-06T12:35:28;1.08;;;0.95;;
39102;SDS011;24847;48.218;16.414;2023-08-06T12:40:30;1.75;;;1.42;;
39102;SDS011;24847;48.218;16.414;2023-08-06T12:45:34;2.25;;;2.05;;
39102;SDS011;24847;48.218;16.414;2023-08-06T12:50:36;2.30;;;1.75;;
39102;SDS011;24847;48.218;16.414;2023-08-06T12:55:39;1.73;;;1.40;;
39102;SDS011;24847;48.218;16.414;2023-08-06T13:00:44;1.45;;;1.35;;
39102;SDS011;24847;48.218;16.414;2023-08-06T13:05:48;1.70;;;1.60;;
39102;SDS011;24847;48.218;16.414;2023-08-06T13:10:51;1.77;;;1.35;;
39102;SDS011;24847;48.218;16.414;2023-08-06T13:15:56;1.65;;;1.50;;
39102;SDS011;24847;48.218;16.414;2023-08-06T13:20:58;1.38;;;1.25;;
39102;SDS011;24847;48.218;16.414;2023-08-06T13:26:01;1.20;;;1.10;;
39102;SDS011;24847;48.218;16.414;2023-08-06T13:31:06;1.52;;;1.42;;
39102;SDS011;24847;48.218;16.414;2023-08-06T13:36:09;2.72;;;2.53;;
39102;SDS011;24847;48.218;16.414;2023-08-06T13:41:13;2.47;;;1.83;;
39102;SDS011;24847;48.218;16.414;2023-08-06T13:46:19;2.65;;;1.48;;
39102;SDS011;24847;48.218;16.414;2023-08-06T13:51:23;1.73;;;1.60;;
39102;SDS011;24847;48.218;16.414;2023-08-06T13:56:26;1.58;;;1.40;;
39102;SDS011;24847;48.218;16.414;2023-08-06T14:01:31;1.92;;;1.67;;
39102;SDS011;24847;48.218;16.414;2023-08-06T14:06:35;1.83;;;1.35;;
39102;SDS011;24847;48.218;16.414;2023-08-06T14:11:40;1.35;;;1.25;;
39102;SDS011;24847;48.218;16.414;2023-08-06T14:16:44;1.40;;;1.30;;
39102;SDS011;24847;48.218;16.414;2023-08-06T14:21:47;1.38;;;1.27;;
39102;SDS011;24847;48.218;16.414;2023-08-06T14:26:50;2.38;;;1.10;;
39102;SDS011;24847;48.218;16.414;2023-08-06T14:31:56;1.10;;;0.90;;
39102;SDS011;24847;48.218;16.414;2023-08-06T14:37:00;0.90;;;0.70;;
39102;SDS011;24847;48.218;16.414;2023-08-06T14:42:06;0.90;;;0.50;;
39102;SDS011;24847;48.218;16.414;2023-08-06T14:47:16;1.10;;;0.60;;
39102;SDS011;24847;48.218;16.414;2023-08-06T14:52:23;0.75;;;0.50;;
39102;SDS011;24847;48.218;16.414;2023-08-06T14:57:27;0.63;;;0.60;;
39102;SDS011;24847;48.218;16.414;2023-08-06T15:02:33;1.10;;;0.70;;
39102;SDS011;24847;48.218;16.414;2023-08-06T15:07:38;1.40;;;0.50;;
39102;SDS011;24847;48.218;16.414;2023-08-06T15:12:41;0.60;;;0.45;;
39102;SDS011;24847;48.218;16.414;2023-08-06T15:17:45;0.98;;;0.70;;
39102;SDS011;24847;48.218;16.414;2023-08-06T15:22:49;0.82;;;0.82;;
39102;SDS011;24847;48.218;16.414;2023-08-06T15:27:53;1.25;;;0.80;;
39102;SDS011;24847;48.218;16.414;2023-08-06T15:32:56;5.05;;;4.65;;
39102;SDS011;24847;48.218;16.414;2023-08-06T15:37:59;2.22;;;1.73;;
39102;SDS011;24847;48.218;16.414;2023-08-06T15:43:02;1.27;;;0.70;;
39102;SDS011;24847;48.218;16.414;2023-08-06T15:48:12;0.55;;;0.40;;
39102;SDS011;24847;48.218;16.414;2023-08-06T15:53:16;1.45;;;0.75;;
39102;SDS011;24847;48.218;16.414;2023-08-06T15:58:20;1.55;;;0.45;;
39102;SDS011;24847;48.218;16.414;2023-08-06T16:03:26;1.70;;;0.57;;
39102;SDS011;24847;48.218;16.414;2023-08-06T16:08:29;0.73;;;0.38;;
39102;SDS011;24847;48.218;16.414;2023-08-06T16:13:32;1.05;;;0.30;;
39102;SDS011;24847;48.218;16.414;2023-08-06T16:18:36;0.70;;;0.50;;
39102;SDS011;24847;48.218;16.414;2023-08-06T16:23:39;0.70;;;0.25;;
39102;SDS011;24847;48.218;16.414;2023-08-06T16:28:44;0.80;;;0.40;;
39102;SDS011;24847;48.218;16.414;2023-08-06T16:33:48;0.50;;;0.30;;
39102;SDS011;24847;48.218;16.414;2023-08-06T16:38:52;0.45;;;0.20;;
39102;SDS011;24847;48.218;16.414;2023-08-06T16:43:57;1.92;;;0.85;;
39102;SDS011;24847;48.218;16.414;2023-08-06T16:49:00;0.85;;;0.70;;
39102;SDS011;24847;48.218;16.414;2023-08-06T16:54:04;0.50;;;0.30;;
39102;SDS011;24847;48.218;16.414;2023-08-06T16:59:07;0.93;;;0.20;;
39102;SDS011;24847;48.218;16.414;2023-08-06T17:04:12;0.65;;;0.20;;
39102;SDS011;24847;48.218;16.414;2023-08-06T17:09:15;0.40;;;0.25;;
39102;SDS011;24847;48.218;16.414;2023-08-06T17:14:18;0.63;;;0.20;;
39102;SDS011;24847;48.218;16.414;2023-08-06T17:19:25;0.45;;;0.30;;
39102;SDS011;24847;48.218;16.414;2023-08-06T17:24:28;1.42;;;0.88;;
39102;SDS011;24847;48.218;16.414;2023-08-06T17:29:31;0.40;;;0.30;;
39102;SDS011;24847;48.218;16.414;2023-08-06T17:34:35;0.38;;;0.20;;
39102;SDS011;24847;48.218;16.414;2023-08-06T17:39:38;0.45;;;0.30;;
39102;SDS011;24847;48.218;16.414;2023-08-06T17:44:42;0.50;;;0.20;;
39102;SDS011;24847;48.218;16.414;2023-08-06T17:49:46;1.25;;;0.20;;
39102;SDS011;24847;48.218;16.414;2023-08-06T17:54:49;0.17;;;0.10;;
39102;SDS011;24847;48.218;16.414;2023-08-06T17:59:54;0.32;;;0.10;;
39102;SDS011;24847;48.218;16.414;2023-08-06T18:04:59;1.05;;;0.13;;
39102;SDS011;24847;48.218;16.414;2023-08-06T18:10:03;0.20;;;0.20;;
39102;SDS011;24847;48.218;16.414;2023-08-06T18:15:07;0.10;;;0.00;;
39102;SDS011;24847;48.218;16.414;2023-08-06T18:20:14;0.30;;;0.15;;
39102;SDS011;24847;48.218;16.414;2023-08-06T18:25:18;0.17;;;0.10;;
39102;SDS011;24847;48.218;16.414;2023-08-06T18:30:21;0.30;;;0.10;;
39102;SDS011;24847;48.218;16.414;2023-08-06T18:35:27;0.10;;;0.10;;
39102;SDS011;24847;48.218;16.414;2023-08-06T18:40:32;0.40;;;0.17;;
39102;SDS011;24847;48.218;16.414;2023-08-06T18:45:34;0.28;;;0.10;;
39102;SDS011;24847;48.218;16.414;2023-08-06T18:50:43;0.57;;;0.20;;
39102;SDS011;24847;48.218;16.414;2023-08-06T18:55:47;1.55;;;0.13;;
39102;SDS011;24847;48.218;16.414;2023-08-06T19:00:55;0.25;;;0.15;;
39102;SDS011;24847;48.218;16.414;2023-08-06T19:06:01;0.30;;;0.10;;
39102;SDS011;24847;48.218;16.414;2023-08-06T19:11:06;0.38;;;0.28;;
39102;SDS011;24847;48.218;16.414;2023-08-06T19:16:15;0.40;;;0.10;;
39102;SDS011;24847;48.218;16.414;2023-08-06T19:21:22;0.40;;;0.20;;
39102;SDS011;24847;48.218;16.414;2023-08-06T19:26:26;0.30;;;0.10;;
39102;SDS011;24847;48.218;16.414;2023-08-06T19:31:33;0.32;;;0.10;;
39102;SDS011;24847;48.218;16.414;2023-08-06T19:36:38;0.35;;;0.10;;
39102;SDS011;24847;48.218;16.414;2023-08-06T19:41:43;0.10;;;0.10;;
39102;SDS011;24847;48.218;16.414;2023-08-06T19:46:46;0.08;;;0.08;;
39102;SDS011;24847;48.218;16.414;2023-08-06T19:51:51;0.20;;;0.10;;
39102;SDS011;24847;48.218;16.414;2023-08-06T19:56:56;0.65;;;0.10;;
39102;SDS011;24847;48.218;16.414;2023-08-06T20:01:59;2.20;;;1.42;;
39102;SDS011;24847;48.218;16.414;2023-08-06T20:07:10;0.85;;;0.43;;
39102;SDS011;24847;48.218;16.414;2023-08-06T20:12:13;0.30;;;0.20;;
39102;SDS011;24847;48.218;16.414;2023-08-06T20:17:17;0.52;;;0.10;;
39102;SDS011;24847;48.218;16.414;2023-08-06T20:22:22;0.50;;;0.13;;
39102;SDS011;24847;48.218;16.414;2023-08-06T20:27:25;0.50;;;0.10;;
39102;SDS011;24847;48.218;16.414;2023-08-06T20:32:29;0.20;;;0.10;;
39102;SDS011;24847;48.218;16.414;2023-08-06T20:37:33;0.20;;;0.10;;
39102;SDS011;24847;48.218;16.414;2023-08-06T20:42:38;0.20;;;0.10;;
39102;SDS011;24847;48.218;16.414;2023-08-06T20:47:41;0.20;;;0.10;;
39102;SDS011;24847;48.218;16.414;2023-08-06T20:52:46;0.17;;;0.00;;
39102;SDS011;24847;48.218;16.414;2023-08-06T20:57:49;0.20;;;0.10;;
39102;SDS011;24847;48.218;16.414;2023-08-06T21:02:51;0.20;;;0.00;;
39102;SDS011;24847;48.218;16.414;2023-08-06T21:07:55;0.30;;;0.10;;
39102;SDS011;24847;48.218;16.414;2023-08-06T21:12:57;0.28;;;0.05;;
39102;SDS011;24847;48.218;16.414;2023-08-06T21:18:00;0.15;;;0.05;;
39102;SDS011;24847;48.218;16.414;2023-08-06T21:23:03;0.57;;;0.10;;
39102;SDS011;24847;48.218;16.414;2023-08-06T21:28:06;0.50;;;0.10;;
39102;SDS011;24847;48.218;16.414;2023-08-06T21:33:08;1.48;;;0.10;;
39102;SDS011;24847;48.218;16.414;2023-08-06T21:38:12;0.55;;;0.10;;
39102;SDS011;24847;48.218;16.414;2023-08-06T21:43:14;0.43;;;0.10;;
39102;SDS011;24847;48.218;16.414;2023-08-06T21:48:16;0.45;;;0.10;;
39102;SDS011;24847;48.218;16.414;2023-08-06T21:53:20;0.32;;;0.10;;
39102;SDS011;24847;48.218;16.414;2023-08-06T21:58:22;0.10;;;0.00;;
39102;SDS011;24847;48.218;16.414;2023-08-06T22:03:24;0.10;;;0.00;;
39102;SDS011;24847;48.218;16.414;2023-08-06T22:08:28;0.30;;;0.13;;
39102;SDS011;24847;48.218;16.414;2023-08-06T22:13:31;0.13;;;0.10;;
39102;SDS011;24847;48.218;16.414;2023-08-06T22:18:33;0.25;;;0.10;;
39102;SDS011;24847;48.218;16.414;2023-08-06T22:23:37;0.47;;;0.10;;
39102;SDS011;24847;48.218;16.414;2023-08-06T22:28:40;0.38;;;0.20;;
39102;SDS011;24847;48.218;16.414;2023-08-06T22:33:44;0.08;;;0.08;;
39102;SDS011;24847;48.218;16.414;2023-08-06T22:38:48;0.47;;;0.10;;
39102;SDS011;24847;48.218;16.414;2023-08-06T22:43:50;1.33;;;0.00;;
39102;SDS011;24847;48.218;16.414;2023-08-06T22:48:53;0.50;;;0.10;;
39102;SDS011;24847;48.218;16.414;2023-08-06T22:53:56;0.20;;;0.10;;
39102;SDS011;24847;48.218;16.414;2023-08-06T22:58:58;0.20;;;0.10;;
39102;SDS011;24847;48.218;16.414;2023-08-06T23:04:01;0.10;;;0.10;;
39102;SDS011;24847;48.218;16.414;2023-08-06T23:09:04;0.20;;;0.13;;
39102;SDS011;24847;48.218;16.414;2023-08-06T23:14:06;6.55;;;0.60;;
39102;SDS011;24847;48.218;16.414;2023-08-06T23:19:09;1.05;;;0.20;;
39102;SDS011;24847;48.218;16.414;2023-08-06T23:24:12;0.20;;;0.10;;
39102;SDS011;24847;48.218;16.414;2023-08-06T23:29:16;0.38;;;0.15;;
39102;SDS011;24847;48.218;16.414;2023-08-06T23:34:18;0.20;;;0.20;;
39102;SDS011;24847;48.218;16.414;2023-08-06T23:39:22;1.63;;;0.20;;
39102;SDS011;24847;48.218;16.414;2023-08-06T23:44:24;0.35;;;0.20;;
39102;SDS011;24847;48.218;16.414;2023-08-06T23:49:26;64.20;;;4.45;;
39102;SDS011;24847;48.218;16.414;2023-08-06T23:54:30;1.85;;;0.20;;
39102;SDS011;24847;48.218;16.414;2023-08-06T23:59:32;0.20;;;0.15;;
